Time;durP1;ratioP1;P1;durP2;ratioP2;P2;SDS_P1;SDS_P2;PMS_P1;PMS_P2;Temp;Humidity;BMP_temperature;BMP_pressure;BME280_temperature;BME280_humidity;BME280_pressure;Samples;Min_cycle;Max_cycle;Signal;HPM_P1;HPM_P2
2024/03/13 00:00:13;;;;;;;6.50;5.10;;;;;;;10.38;75.57;98652.66;232574;203;137378;-62
2024/03/13 00:05:42;;;;;;;7.30;4.70;;;;;;;10.30;75.30;98654.42;232367;204;152783;-61
2024/03/13 00:10:46;;;;;;;6.00;4.90;;;;;;;10.29;75.39;98652.88;232458;200;138049;-61
2024/03/13 00:15:50;;;;;;;5.20;3.50;;;;;;;10.30;75.49;98659.02;232458;204;137781;-61
2024/03/13 00:20:53;;;;;;;6.70;5.20;;;;;;;10.32;75.50;98661.56;232393;203;152826;-61
2024/03/13 00:25:56;;;;;;;7.00;5.00;;;;;;;10.28;75.63;98661.49;232391;200;137707;-60
2024/03/13 00:31:00;;;;;;;6.50;4.50;;;;;;;10.20;75.65;98660.92;232431;200;138277;-60
2024/03/13 00:36:04;;;;;;;5.10;4.20;;;;;;;10.07;75.86;98665.83;232467;196;151475;-61
2024/03/13 00:41:08;;;;;;;5.30;4.00;;;;;;;10.03;76.00;98669.31;232386;204;138604;-60
2024/03/13 00:46:12;;;;;;;4.90;3.80;;;;;;;10.02;75.96;98669.92;232502;203;137312;-60
2024/03/13 00:51:16;;;;;;;3.30;2.10;;;;;;;10.02;75.81;98666.02;232415;203;152425;-60
2024/03/13 00:56:19;;;;;;;5.70;3.30;;;;;;;10.02;75.67;98667.41;232469;203;137577;-60
2024/03/13 01:01:22;;;;;;;4.10;3.40;;;;;;;10.00;75.48;98663.98;232453;200;138546;-60
2024/03/13 01:06:28;;;;;;;5.90;3.40;;;;;;;9.98;75.54;98661.67;232457;197;151394;-60
2024/03/13 01:11:34;;;;;;;3.50;3.00;;;;;;;9.93;75.76;98661.77;232463;200;136485;-59
2024/03/13 01:16:37;;;;;;;4.70;3.70;;;;;;;9.91;76.01;98663.67;232509;203;136485;-60
2024/03/13 01:21:40;;;;;;;5.50;3.90;;;;;;;9.85;76.00;98669.22;232493;199;151845;-60
2024/03/13 01:26:45;;;;;;;5.00;3.60;;;;;;;9.84;76.06;98668.79;232479;199;137425;-60
2024/03/13 01:31:49;;;;;;;6.20;3.90;;;;;;;9.82;75.88;98667.13;232510;203;139889;-60
2024/03/13 01:58:39;;;;;;;4.80;4.30;;;;;;;9.84;75.58;98684.40;232304;203;139757;-59
2024/03/13 02:03:43;;;;;;;5.60;4.40;;;;;;;9.84;75.85;98688.46;232674;203;136876;-60
2024/03/13 02:08:47;;;;;;;5.90;3.80;;;;;;;9.83;75.74;98694.73;232510;203;153949;-59
2024/03/13 02:13:51;;;;;;;5.60;4.20;;;;;;;9.81;75.86;98689.32;232490;203;137810;-61
2024/03/13 02:18:58;;;;;;;7.00;4.50;;;;;;;9.87;75.86;98681.88;232614;200;136715;-60
2024/03/13 02:24:01;;;;;;;6.10;4.40;;;;;;;9.92;75.68;98684.04;232419;199;153955;-61
2024/03/13 02:29:04;;;;;;;5.60;4.50;;;;;;;9.87;75.56;98684.31;232592;203;137387;-61
2024/03/13 02:34:08;;;;;;;6.60;4.70;;;;;;;9.76;75.81;98691.63;232621;203;136429;-61
2024/03/13 02:39:18;;;;;;;6.80;5.20;;;;;;;9.68;76.03;98693.38;232558;195;151266;-61
2024/03/13 02:44:21;;;;;;;5.60;4.60;;;;;;;9.61;76.36;98695.95;232525;200;137017;-61
2024/03/13 02:49:24;;;;;;;5.40;4.40;;;;;;;9.60;76.49;98700.41;232699;203;137807;-61
2024/03/13 02:54:27;;;;;;;6.70;4.30;;;;;;;9.61;76.65;98701.93;232562;196;151424;-61
2024/03/13 02:59:32;;;;;;;8.40;4.70;;;;;;;9.57;76.72;98699.77;232523;203;138259;-62
2024/03/13 03:04:35;;;;;;;5.70;4.50;;;;;;;9.58;76.59;98702.48;232549;203;137490;-59
2024/03/13 03:09:39;;;;;;;5.90;4.50;;;;;;;9.55;76.50;98707.99;232561;203;152480;-60
2024/03/13 03:14:42;;;;;;;7.80;5.30;;;;;;;9.51;76.30;98709.15;232570;203;137206;-59
2024/03/13 03:19:45;;;;;;;6.80;5.40;;;;;;;9.44;76.33;98707.48;232561;203;138172;-61
2024/03/13 03:24:49;;;;;;;7.00;5.20;;;;;;;9.42;76.67;98709.35;232504;203;151695;-60
2024/03/13 03:29:52;;;;;;;5.50;4.40;;;;;;;9.44;76.77;98714.36;232539;203;137954;-59
2024/03/13 03:34:55;;;;;;;5.70;4.50;;;;;;;9.46;76.81;98718.98;232614;203;248889;-60
2024/03/13 03:39:58;;;;;;;6.70;5.10;;;;;;;9.49;76.71;98716.73;232548;195;151497;-60
2024/03/13 03:45:03;;;;;;;8.60;6.60;;;;;;;9.51;76.59;98714.98;232456;203;265850;-60
2024/03/13 03:50:07;;;;;;;8.00;6.30;;;;;;;9.53;76.18;98720.36;232582;203;137955;-60
2024/03/13 03:55:10;;;;;;;8.50;6.50;;;;;;;9.55;76.16;98725.69;232537;201;151453;-61
2024/03/13 04:00:14;;;;;;;10.30;7.50;;;;;;;9.53;75.95;98726.58;232568;200;136799;-60
2024/03/13 04:05:18;;;;;;;10.70;8.00;;;;;;;9.49;75.95;98727.16;232606;200;140407;-60
2024/03/13 04:10:21;;;;;;;9.30;7.40;;;;;;;9.48;75.96;98727.36;232603;203;151389;-60
2024/03/13 04:15:26;;;;;;;9.60;7.00;;;;;;;9.51;75.75;98729.87;232482;199;137377;-59
2024/03/13 04:20:29;;;;;;;10.80;8.40;;;;;;;9.54;75.66;98733.02;232103;200;137647;-60
2024/03/13 04:25:36;;;;;;;10.10;8.00;;;;;;;9.57;75.66;98734.26;231974;203;152958;-61
2024/03/13 04:30:43;;;;;;;9.40;7.60;;;;;;;9.55;75.64;98736.67;232582;199;137217;-60
2024/03/13 04:35:47;;;;;;;10.00;7.40;;;;;;;9.53;75.78;98736.45;232668;196;137506;-61
2024/03/13 04:40:50;;;;;;;8.90;7.30;;;;;;;9.52;75.67;98739.20;232573;203;153067;-60
2024/03/13 04:45:53;;;;;;;10.30;7.30;;;;;;;9.50;75.76;98743.24;232509;200;138695;-60
2024/03/13 04:50:58;;;;;;;8.90;6.70;;;;;;;9.52;75.85;98747.91;232595;200;137244;-60
2024/03/13 04:56:04;;;;;;;8.80;7.00;;;;;;;9.55;75.72;98747.64;232530;204;151656;-61
2024/03/13 05:01:14;;;;;;;;;;;;;;;9.60;75.64;98751.27;232584;200;137804;-60
2024/03/13 05:06:21;;;;;;;10.30;7.20;;;;;;;9.61;75.67;98753.13;232614;203;135241;-59
2024/03/13 05:11:24;;;;;;;10.50;8.10;;;;;;;9.60;75.65;98756.39;232587;203;151783;-61
2024/03/13 05:16:27;;;;;;;10.80;7.80;;;;;;;9.62;75.72;98767.63;232524;203;136575;-58
2024/03/13 05:21:31;;;;;;;9.00;7.30;;;;;;;9.62;75.74;98769.73;232537;200;136550;-61
2024/03/13 05:26:35;;;;;;;9.10;6.90;;;;;;;9.59;75.83;98778.75;232475;203;151831;-60
2024/03/13 05:31:38;;;;;;;7.60;5.90;;;;;;;9.55;75.53;98780.24;232412;201;137483;-61
2024/03/13 05:36:42;;;;;;;8.00;6.40;;;;;;;9.59;75.43;98784.44;232582;203;137722;-61
2024/03/13 05:41:45;;;;;;;6.70;5.50;;;;;;;9.68;75.54;98784.92;232552;203;151505;-61
2024/03/13 05:46:48;;;;;;;7.20;5.20;;;;;;;9.81;75.33;98789.29;232540;203;137958;-61
2024/03/13 05:51:54;;;;;;;6.40;4.50;;;;;;;9.79;75.09;98794.69;232635;200;136619;-60
2024/03/13 05:56:58;;;;;;;5.10;4.50;;;;;;;9.74;74.99;98795.02;232590;203;151330;-60
2024/03/13 06:02:01;;;;;;;5.30;4.00;;;;;;;9.70;74.85;98798.45;232502;196;140330;-62
2024/03/13 06:07:05;;;;;;;8.20;4.10;;;;;;;9.63;75.03;98807.04;232367;203;136618;-61
2024/03/13 06:12:08;;;;;;;526.20;417.70;;;;;;;9.58;75.45;98810.54;232500;203;151758;-61
2024/03/13 06:17:12;;;;;;;14.90;11.00;;;;;;;9.59;75.68;98812.61;232559;203;139128;-60
2024/03/13 06:22:16;;;;;;;231.90;173.60;;;;;;;9.69;75.57;98820.33;232592;203;138148;-61
2024/03/13 06:27:27;;;;;;;9.30;6.80;;;;;;;9.85;75.22;98820.75;232542;203;152202;-61
2024/03/13 06:32:31;;;;;;;5.30;4.50;;;;;;;9.89;74.85;98826.85;232586;203;138374;-61
2024/03/13 06:37:34;;;;;;;7.20;5.40;;;;;;;9.91;74.47;98832.74;232512;203;138379;-56
2024/03/13 06:42:38;;;;;;;6.40;5.30;;;;;;;9.86;74.35;98834.66;232511;199;151169;-63
2024/03/13 06:47:42;;;;;;;6.80;5.60;;;;;;;9.79;74.12;98837.75;232500;196;136903;-61
2024/03/13 06:52:45;;;;;;;5.90;5.10;;;;;;;9.73;74.16;98847.00;232557;199;136694;-62
2024/03/13 06:57:49;;;;;;;5.50;4.40;;;;;;;9.69;74.37;98851.64;232582;200;152675;-62
2024/03/13 07:02:52;;;;;;;6.70;4.70;;;;;;;9.70;74.42;98856.01;232512;203;144221;-61
2024/03/13 07:07:56;;;;;;;5.90;4.80;;;;;;;9.73;74.60;98857.27;232556;196;137843;-61
2024/03/13 07:12:59;;;;;;;7.40;5.50;;;;;;;9.83;74.14;98863.36;232426;196;151543;-62
2024/03/13 07:18:03;;;;;;;372.30;294.20;;;;;;;9.94;74.41;98865.35;232415;203;137102;-62
2024/03/13 07:23:08;;;;;;;8.60;7.20;;;;;;;9.97;74.22;98865.17;232412;197;138022;-62
2024/03/13 07:28:11;;;;;;;5.50;4.30;;;;;;;9.91;74.06;98866.77;232552;200;151545;-63
2024/03/13 07:33:15;;;;;;;5.20;4.30;;;;;;;9.83;74.18;98870.63;232501;197;138402;-62
2024/03/13 07:38:19;;;;;;;5.20;3.60;;;;;;;9.77;74.35;98874.95;232459;203;136895;-63
2024/03/13 07:43:22;;;;;;;4.10;3.70;;;;;;;9.74;74.54;98879.58;232589;197;152012;-62
2024/03/13 07:48:26;;;;;;;6.80;4.20;;;;;;;9.74;74.77;98885.03;232435;204;136925;-59
2024/03/13 07:53:31;;;;;;;6.10;4.50;;;;;;;9.75;74.61;98888.68;232624;200;136981;-58
2024/03/13 07:58:34;;;;;;;6.00;4.20;;;;;;;9.75;74.73;98888.88;232452;203;151321;-59
2024/03/13 08:03:38;;;;;;;4.80;4.20;;;;;;;9.72;74.70;98891.50;232483;203;137607;-59
2024/03/13 08:08:41;;;;;;;37.20;31.80;;;;;;;9.69;74.68;98892.75;232555;203;137303;-58
2024/03/13 08:14:01;;;;;;;7.80;6.50;;;;;;;9.74;75.51;98897.59;232597;203;151478;-58
2024/03/13 08:19:19;;;;;;;2.50;2.00;;;;;;;9.73;74.84;98898.03;232577;200;137795;-59
2024/03/13 08:24:36;;;;;;;1.90;1.20;;;;;;;9.66;73.09;98899.16;232610;196;137711;-59
2024/03/13 08:29:53;;;;;;;2.00;1.40;;;;;;;9.59;72.62;98903.30;232550;203;153433;-59
2024/03/13 08:35:13;;;;;;;2.00;1.50;;;;;;;9.54;72.45;98912.26;232545;200;137576;-59
2024/03/13 08:40:30;;;;;;;2.40;1.80;;;;;;;9.49;72.61;98913.44;232620;204;137815;-59
2024/03/13 08:45:48;;;;;;;2.90;1.90;;;;;;;9.43;72.49;98918.59;232544;200;152379;-59
2024/03/13 08:51:09;;;;;;;2.70;1.90;;;;;;;9.36;72.43;98919.20;232600;200;137665;-58
2024/03/13 08:56:27;;;;;;;4.10;2.20;;;;;;;9.31;72.68;98922.88;232515;200;136878;-59
2024/03/13 09:01:45;;;;;;;2.90;2.00;;;;;;;9.25;72.56;98928.13;232496;196;152990;-59
2024/03/13 09:07:02;;;;;;;3.10;2.10;;;;;;;9.17;73.07;98927.34;232472;196;136562;-60
2024/03/13 09:12:13;;;;;;;3.60;2.10;;;;;;;9.20;73.43;98931.44;232651;196;138088;-59
2024/03/13 09:17:16;;;;;;;3.50;2.30;;;;;;;9.29;73.58;98935.02;232521;200;151191;-58
2024/03/13 09:22:22;;;;;;;2.80;2.10;;;;;;;9.38;73.59;98938.55;232613;203;137025;-58
2024/03/13 09:27:25;;;;;;;5.60;2.50;;;;;;;9.41;73.48;98941.17;232430;203;137330;-57
2024/03/13 09:32:28;;;;;;;5.70;3.10;;;;;;;9.44;73.63;98949.33;232566;203;152063;-58
2024/03/13 09:37:31;;;;;;;4.80;3.20;;;;;;;9.43;73.73;98953.63;232516;203;137622;-57
2024/03/13 09:42:38;;;;;;;6.40;3.40;;;;;;;9.44;73.99;98957.66;232597;201;136288;-57
2024/03/13 09:47:44;;;;;;;4.30;3.10;;;;;;;9.44;74.06;98960.86;232533;200;151245;-56
2024/03/13 09:52:52;;;;;;;6.30;3.10;;;;;;;9.40;74.21;98962.48;232562;203;137926;-57
2024/03/13 09:57:58;;;;;;;5.70;2.80;;;;;;;9.42;74.50;98962.57;232507;203;138189;-58
2024/03/13 10:03:13;;;;;;;7.90;3.40;;;;;;;9.46;74.49;98964.45;232341;203;153651;-57
2024/03/13 10:08:19;;;;;;;7.50;5.00;;;;;;;9.49;74.38;98964.80;232559;200;138055;-58
2024/03/13 10:13:22;;;;;;;8.80;5.30;;;;;;;9.51;74.65;98968.96;232522;203;136918;-58
2024/03/13 10:18:26;;;;;;;8.20;6.40;;;;;;;9.51;74.74;98970.02;232558;203;151363;-58
2024/03/13 10:23:31;;;;;;;9.10;7.20;;;;;;;9.51;75.08;98974.09;232595;196;137426;-57
2024/03/13 10:28:34;;;;;;;11.80;8.20;;;;;;;9.51;75.33;98973.55;232593;203;137108;-58
2024/03/13 10:33:38;;;;;;;13.10;8.50;;;;;;;9.54;75.16;98976.75;232536;197;151939;-60
2024/03/13 10:38:43;;;;;;;13.10;9.70;;;;;;;9.59;75.06;98976.63;232576;200;137555;-59
2024/03/13 10:43:47;;;;;;;16.40;10.70;;;;;;;9.65;75.19;98979.06;232541;203;138976;-57
2024/03/13 10:48:52;;;;;;;15.80;11.80;;;;;;;9.77;75.07;98977.01;232608;195;152112;-58
2024/03/13 10:53:56;;;;;;;376.80;251.20;;;;;;;9.80;75.06;98982.09;232541;203;137316;-58
2024/03/13 10:58:59;;;;;;;39.00;25.60;;;;;;;9.87;75.38;98984.33;232457;196;137716;-58
2024/03/13 11:04:08;;;;;;;22.00;15.70;;;;;;;9.91;74.77;98983.39;231301;203;152229;-57
2024/03/13 11:09:20;;;;;;;22.50;15.80;;;;;;;9.86;74.12;98979.07;232309;200;137895;-58
2024/03/13 11:14:30;;;;;;;22.50;15.20;;;;;;;9.83;74.21;98982.79;232501;200;137711;-59
2024/03/13 11:19:35;;;;;;;24.40;15.80;;;;;;;9.85;74.06;98981.78;232522;203;151966;-57
2024/03/13 11:24:40;;;;;;;30.70;19.10;;;;;;;9.92;73.65;98978.91;232504;200;138159;-58
2024/03/13 11:29:49;;;;;;;32.60;20.30;;;;;;;9.87;73.14;98977.46;232502;200;137971;-58
2024/03/13 11:34:53;;;;;;;32.30;20.20;;;;;;;9.76;73.60;98976.19;232475;202;151450;-59
2024/03/13 11:39:57;;;;;;;32.40;19.40;;;;;;;9.74;73.51;98974.13;232228;200;137909;-59
2024/03/13 11:45:29;;;;;;;33.50;20.00;;;;;;;9.72;73.90;98970.52;232556;195;137850;-59
2024/03/13 11:50:33;;;;;;;34.20;20.70;;;;;;;9.69;73.91;98969.98;232348;200;151190;-58
2024/03/13 11:55:36;;;;;;;34.90;20.60;;;;;;;9.69;74.05;98969.82;232391;203;137508;-58
2024/03/13 12:00:39;;;;;;;32.10;19.40;;;;;;;9.68;73.99;98970.42;232467;203;138137;-58
2024/03/13 12:05:42;;;;;;;32.80;19.50;;;;;;;9.72;74.12;98972.14;232452;196;152385;-57
2024/03/13 12:10:49;;;;;;;32.70;20.10;;;;;;;9.79;73.98;98972.42;232446;200;137956;-59
2024/03/13 12:15:52;;;;;;;34.00;19.10;;;;;;;9.89;73.75;98970.72;232393;196;136784;-59
2024/03/13 12:20:55;;;;;;;33.00;20.50;;;;;;;9.94;73.74;98970.96;232450;203;153087;-58
2024/03/13 12:26:01;;;;;;;34.40;20.60;;;;;;;9.91;73.73;98968.11;232473;203;137620;-60
2024/03/13 12:31:06;;;;;;;36.00;19.90;;;;;;;9.93;73.62;98973.91;232511;203;138044;-59
2024/03/13 12:36:14;;;;;;;295.30;207.80;;;;;;;9.90;73.87;98972.98;232445;203;151453;-60
2024/03/13 12:41:17;;;;;;;34.60;20.20;;;;;;;9.95;74.65;98974.29;232446;203;138436;-58
2024/03/13 12:46:21;;;;;;;34.10;19.70;;;;;;;9.96;74.06;98979.03;232417;203;138072;-59
2024/03/13 12:51:27;;;;;;;38.30;21.70;;;;;;;9.99;74.20;98981.13;232483;203;151274;-57
2024/03/13 12:56:30;;;;;;;36.60;21.90;;;;;;;10.03;73.98;98982.29;232398;196;136832;-59
2024/03/13 13:01:34;;;;;;;36.30;22.40;;;;;;;10.10;73.34;98984.17;232474;203;137956;-59
2024/03/13 13:06:38;;;;;;;30.20;19.70;;;;;;;10.08;72.32;98981.63;232097;203;152084;-59
2024/03/13 13:11:41;;;;;;;34.30;20.70;;;;;;;9.92;72.73;98980.11;232488;195;137328;-59
2024/03/13 13:16:48;;;;;;;29.20;20.20;;;;;;;9.91;73.03;98976.30;232400;203;137614;-59
2024/03/13 13:21:51;;;;;;;29.50;18.80;;;;;;;9.89;73.42;98976.77;232436;203;152249;-59
2024/03/13 13:26:54;;;;;;;29.40;18.40;;;;;;;9.93;73.50;98978.64;232408;199;138639;-59
2024/03/13 13:31:59;;;;;;;27.20;18.10;;;;;;;10.00;73.63;98976.11;232450;200;139593;-59
2024/03/13 13:37:03;;;;;;;24.60;17.00;;;;;;;10.07;72.97;98976.38;232411;203;152073;-59
2024/03/13 13:42:06;;;;;;;24.10;17.40;;;;;;;10.09;72.89;98978.39;232468;200;137615;-59
2024/03/13 13:47:10;;;;;;;24.10;16.40;;;;;;;10.11;72.98;98978.96;232409;203;138403;-59
2024/03/13 13:52:14;;;;;;;22.10;16.00;;;;;;;10.15;73.08;98979.60;232399;203;151089;-60
2024/03/13 13:57:17;;;;;;;24.80;16.50;;;;;;;10.20;72.96;98983.77;232484;200;138736;-59
2024/03/13 14:02:23;;;;;;;23.20;16.00;;;;;;;10.25;73.04;98986.30;232473;203;137165;-59
2024/03/13 14:07:27;;;;;;;22.20;14.60;;;;;;;10.31;73.10;98987.05;232491;203;151271;-60
2024/03/13 14:12:32;;;;;;;20.70;14.40;;;;;;;10.37;72.87;98988.21;232388;203;139502;-60
2024/03/13 14:17:36;;;;;;;24.50;16.50;;;;;;;10.50;72.57;98991.13;232406;200;138646;-60
2024/03/13 14:22:40;;;;;;;24.70;16.90;;;;;;;10.63;72.36;98990.34;232517;196;152019;-60
2024/03/13 14:27:44;;;;;;;28.10;16.80;;;;;;;10.72;71.92;98993.52;232418;203;137053;-60
2024/03/13 14:32:47;;;;;;;22.40;16.80;;;;;;;10.77;71.79;98995.50;232447;196;138129;-60
2024/03/13 14:37:51;;;;;;;25.80;16.70;;;;;;;10.79;71.49;98999.58;232527;203;151214;-61
2024/03/13 14:42:54;;;;;;;27.00;16.60;;;;;;;10.81;71.21;99001.27;232432;200;138772;-61
2024/03/13 14:47:57;;;;;;;23.80;15.50;;;;;;;10.84;70.70;99000.57;232454;203;137881;-61
2024/03/13 14:53:03;;;;;;;60.70;39.30;;;;;;;10.86;70.32;99009.46;232416;203;163999;-61
2024/03/13 14:58:09;;;;;;;24.10;15.80;;;;;;;10.88;69.67;99008.27;232435;199;138426;-61
2024/03/13 15:03:12;;;;;;;22.00;15.40;;;;;;;10.86;69.18;99012.67;232403;203;137617;-60
2024/03/13 15:08:16;;;;;;;23.30;15.50;;;;;;;10.81;68.78;99017.73;232433;200;151505;-61
2024/03/13 15:13:19;;;;;;;20.10;14.20;;;;;;;10.78;68.61;99021.67;232532;200;138071;-61
2024/03/13 15:18:23;;;;;;;21.30;15.00;;;;;;;10.78;68.82;99022.07;232421;203;138576;-61
2024/03/13 15:23:28;;;;;;;23.00;15.40;;;;;;;10.82;68.82;99024.81;232323;200;152161;-61
2024/03/13 15:28:33;;;;;;;22.40;15.70;;;;;;;10.85;68.45;99023.74;232501;203;140240;-61
2024/03/13 15:33:37;;;;;;;21.20;15.40;;;;;;;10.88;68.21;99027.97;232452;203;137960;-61
2024/03/13 15:38:41;;;;;;;21.50;14.90;;;;;;;10.85;68.24;99028.31;232456;199;151710;-60
2024/03/13 15:43:44;;;;;;;24.70;16.40;;;;;;;10.81;68.52;99034.10;232496;203;138488;-65
2024/03/13 15:48:48;;;;;;;24.50;16.10;;;;;;;10.78;68.35;99033.95;232446;203;138020;-62
2024/03/13 15:53:51;;;;;;;25.30;17.00;;;;;;;10.75;67.93;99034.32;232504;203;151419;-60
2024/03/13 15:58:55;;;;;;;23.20;16.10;;;;;;;10.71;67.72;99030.27;232452;203;137614;-62
2024/03/13 16:03:58;;;;;;;25.30;15.80;;;;;;;10.66;67.71;99024.56;232143;200;137574;-61
2024/03/13 16:09:10;;;;;;;21.80;15.40;;;;;;;10.60;67.95;99027.75;232359;200;152947;-67
2024/03/13 16:14:13;;;;;;;20.90;15.60;;;;;;;10.54;68.36;99028.30;232454;200;137482;-66
2024/03/13 16:19:20;;;;;;;26.20;17.00;;;;;;;10.50;68.39;99031.25;232484;200;138453;-72
2024/03/13 16:24:24;;;;;;;33.10;15.40;;;;;;;10.46;68.25;99036.10;232363;203;151328;-62
2024/03/13 16:29:29;;;;;;;24.00;14.50;;;;;;;10.47;68.39;99038.56;232490;200;138086;-61
2024/03/13 16:34:32;;;;;;;21.90;15.10;;;;;;;10.49;68.06;99039.63;232451;200;138547;-60
2024/03/13 16:39:36;;;;;;;20.20;14.60;;;;;;;10.55;67.83;99041.42;232500;200;151395;-61
2024/03/13 16:44:39;;;;;;;22.00;15.00;;;;;;;10.54;68.34;99044.30;232408;200;137972;-61
2024/03/13 16:49:43;;;;;;;23.20;15.00;;;;;;;10.51;68.89;99052.13;232512;200;138482;-60
2024/03/13 16:54:47;;;;;;;24.30;15.30;;;;;;;10.48;68.47;99057.42;232512;203;151354;-61
2024/03/13 16:59:50;;;;;;;25.60;15.30;;;;;;;10.40;69.11;99062.88;232471;200;138111;-60
2024/03/13 17:04:53;;;;;;;24.80;15.50;;;;;;;10.34;69.09;99066.77;232488;200;138074;-60
2024/03/13 17:09:56;;;;;;;29.00;16.00;;;;;;;10.30;69.67;99067.74;232435;203;152679;-60
2024/03/13 17:14:59;;;;;;;24.10;15.10;;;;;;;10.24;69.96;99065.45;232222;200;137174;-60
2024/03/13 17:20:06;;;;;;;21.80;15.00;;;;;;;10.16;70.22;99071.20;232499;200;140361;-60
2024/03/13 17:25:13;;;;;;;27.20;16.30;;;;;;;10.13;70.46;99074.55;232424;203;151310;-61
2024/03/13 17:30:16;;;;;;;;;;;;;;;10.17;70.19;99078.40;232399;203;138675;-60
2024/03/13 17:35:19;;;;;;;29.30;17.90;;;;;;;10.23;69.73;99077.40;232543;203;135754;-60
2024/03/13 17:40:22;;;;;;;28.80;17.90;;;;;;;10.24;69.96;99077.52;232368;196;151496;-60
2024/03/13 17:45:26;;;;;;;30.30;19.00;;;;;;;10.21;70.03;99074.30;232507;196;136921;-60
2024/03/13 17:50:29;;;;;;;28.50;18.40;;;;;;;10.18;70.24;99073.55;232564;203;138147;-59
2024/03/13 17:55:32;;;;;;;28.40;18.00;;;;;;;10.13;70.28;99078.67;232492;195;151445;-61
2024/03/13 18:00:36;;;;;;;27.20;18.30;;;;;;;10.09;70.70;99077.13;232433;200;138559;-61
2024/03/13 18:05:39;;;;;;;24.20;18.30;;;;;;;10.04;71.08;99076.38;232436;203;139424;-61
2024/03/13 18:10:46;;;;;;;32.20;19.60;;;;;;;10.01;70.90;99084.02;232481;203;151928;-59
2024/03/13 18:15:49;;;;;;;31.00;18.30;;;;;;;9.98;71.03;99092.13;231536;203;137436;-60
2024/03/13 18:20:52;;;;;;;29.90;18.70;;;;;;;10.01;71.00;99090.94;232535;203;138023;-60
2024/03/13 18:25:56;;;;;;;34.40;19.90;;;;;;;10.07;70.91;99091.61;232521;203;151330;-61
2024/03/13 18:30:59;;;;;;;37.00;21.60;;;;;;;10.11;70.85;99088.51;232503;200;138627;-60
2024/03/13 18:36:04;;;;;;;34.80;21.90;;;;;;;10.12;70.68;99092.70;232504;196;138174;-60
2024/03/13 18:41:09;;;;;;;31.50;20.20;;;;;;;10.11;70.55;99098.82;232455;203;151662;-59
2024/03/13 18:46:14;;;;;;;31.40;21.10;;;;;;;10.08;70.44;99099.88;232510;200;139531;-60
2024/03/13 18:51:17;;;;;;;35.10;20.60;;;;;;;10.05;70.10;99101.31;232472;203;141688;-61
2024/03/13 18:56:20;;;;;;;33.10;20.20;;;;;;;10.00;69.99;99104.63;232535;203;152129;-60
2024/03/13 19:01:24;;;;;;;30.70;20.10;;;;;;;9.95;70.08;99105.80;232445;200;137294;-60
2024/03/13 19:06:27;;;;;;;32.40;22.20;;;;;;;9.90;70.25;99106.80;232486;203;137900;-61
2024/03/13 19:11:32;;;;;;;35.10;21.70;;;;;;;9.86;70.46;99112.70;232445;203;152451;-59
2024/03/13 19:16:36;;;;;;;37.80;22.70;;;;;;;9.84;70.56;99114.91;232518;203;137541;-60
2024/03/13 19:21:39;;;;;;;34.20;22.60;;;;;;;9.95;70.53;99120.49;231957;203;137826;-60
2024/03/13 19:26:46;;;;;;;37.60;22.80;;;;;;;10.04;70.54;99130.27;231874;203;151936;-59
2024/03/13 19:31:50;;;;;;;31.90;20.50;;;;;;;10.03;70.55;99132.07;232461;203;138382;-59
2024/03/13 19:36:54;;;;;;;38.50;22.80;;;;;;;10.01;71.32;99134.36;232499;197;137114;-60
2024/03/13 19:41:57;;;;;;;36.30;22.70;;;;;;;9.93;70.90;99136.92;232489;200;151949;-60
2024/03/13 19:47:01;;;;;;;40.20;22.80;;;;;;;9.82;70.91;99140.90;232473;203;137568;-60
2024/03/13 19:52:04;;;;;;;35.00;22.00;;;;;;;9.75;71.27;99138.50;232588;195;138004;-59
2024/03/13 19:57:08;;;;;;;33.70;21.30;;;;;;;9.71;71.59;99137.80;232478;203;152378;-61
2024/03/13 20:02:11;;;;;;;30.70;18.70;;;;;;;9.68;71.88;99139.21;232495;203;137339;-61
2024/03/13 20:07:14;;;;;;;33.30;19.10;;;;;;;9.72;71.95;99140.61;232509;200;137976;-60
2024/03/13 20:12:18;;;;;;;35.50;21.20;;;;;;;9.75;71.97;99142.58;232566;200;152000;-60
2024/03/13 20:17:22;;;;;;;28.90;19.70;;;;;;;9.84;71.98;99143.84;232446;203;137493;-60
2024/03/13 20:22:25;;;;;;;38.30;21.40;;;;;;;9.77;71.83;99144.77;232571;203;137798;-60
2024/03/13 20:27:28;;;;;;;29.20;19.20;;;;;;;9.83;71.88;99144.92;232546;203;151983;-61
2024/03/13 20:32:32;;;;;;;31.70;20.10;;;;;;;9.85;71.73;99146.45;232514;203;137109;-59
2024/03/13 20:37:35;;;;;;;32.90;20.30;;;;;;;9.79;71.77;99152.42;232562;197;138873;-60
2024/03/13 20:42:40;;;;;;;34.80;19.00;;;;;;;10.20;77.49;99155.70;232485;203;152227;-60
2024/03/13 20:47:44;;;;;;;30.40;18.90;;;;;;;10.27;72.17;99153.06;232491;203;138034;-59
2024/03/13 20:52:47;;;;;;;33.90;21.30;;;;;;;10.10;71.59;99149.42;231462;195;141691;-60
2024/03/13 20:57:50;;;;;;;98.30;68.30;;;;;;;10.03;72.10;99145.05;232442;203;151233;-61
2024/03/13 21:02:58;;;;;;;31.70;20.00;;;;;;;10.07;72.01;99143.73;232392;196;137312;-61
2024/03/13 21:08:02;;;;;;;32.90;20.60;;;;;;;9.95;71.36;99141.94;232290;203;138289;-60
2024/03/13 21:13:06;;;;;;;33.10;20.80;;;;;;;9.86;71.47;99138.39;232487;203;151270;-60
2024/03/13 21:18:09;;;;;;;32.90;20.90;;;;;;;9.73;71.45;99137.89;232475;203;136898;-61
2024/03/13 21:23:14;;;;;;;36.80;22.60;;;;;;;9.61;71.88;99137.35;232608;203;139464;-60
2024/03/13 21:28:17;;;;;;;32.30;21.60;;;;;;;9.59;72.06;99124.16;232520;200;151449;-58
2024/03/13 21:33:21;;;;;;;36.40;21.30;;;;;;;9.54;72.08;99126.20;232516;203;137745;-61
2024/03/13 21:38:25;;;;;;;32.30;20.80;;;;;;;9.55;72.16;99123.15;231665;203;137829;-60
2024/03/13 21:43:30;;;;;;;80.00;54.40;;;;;;;9.67;73.24;99122.30;232437;203;152288;-58
2024/03/13 21:48:34;;;;;;;34.30;22.30;;;;;;;9.86;72.94;99125.25;232443;196;138858;-62
2024/03/13 21:53:38;;;;;;;33.80;21.90;;;;;;;9.88;71.76;99116.66;232564;203;137152;-59
2024/03/13 21:58:41;;;;;;;34.10;22.40;;;;;;;9.89;72.58;99106.52;232555;200;151340;-61
2024/03/13 22:03:44;;;;;;;31.40;22.10;;;;;;;9.85;71.56;99104.42;232512;197;137857;-60
2024/03/13 22:08:48;;;;;;;34.20;22.30;;;;;;;9.70;71.71;99102.30;232507;203;136960;-59
2024/03/13 22:13:53;;;;;;;40.60;23.00;;;;;;;9.66;72.22;99106.21;232473;195;151876;-61
2024/03/13 22:18:57;;;;;;;40.50;23.30;;;;;;;9.61;72.32;99105.06;232463;199;137258;-62
2024/03/13 22:24:01;;;;;;;39.60;23.30;;;;;;;9.52;72.61;99108.98;232559;203;136834;-63
2024/03/13 22:29:04;;;;;;;33.50;22.10;;;;;;;9.43;72.86;99106.42;232298;203;237259;-62
2024/03/13 22:34:07;;;;;;;41.10;23.80;;;;;;;9.39;72.94;99102.95;231538;203;137454;-60
2024/03/13 22:39:13;;;;;;;40.20;23.90;;;;;;;9.30;72.93;99112.52;232673;199;136659;-61
2024/03/13 22:44:16;;;;;;;;;;;;;;;9.21;72.77;99114.05;232588;203;151767;-62
2024/03/13 22:49:19;;;;;;;36.90;23.30;;;;;;;9.10;72.81;99115.70;231960;197;136804;-61
2024/03/13 22:54:23;;;;;;;31.60;21.00;;;;;;;8.98;72.82;99116.39;232579;200;137685;-61
2024/03/13 22:59:26;;;;;;;32.40;21.00;;;;;;;8.85;73.14;99114.63;232120;203;151889;-61
2024/03/13 23:04:33;;;;;;;32.60;21.10;;;;;;;8.73;73.10;99121.42;232566;199;137637;-61
2024/03/13 23:09:38;;;;;;;31.90;22.00;;;;;;;8.59;73.23;99126.24;232586;200;137413;-62
2024/03/13 23:14:42;;;;;;;33.30;21.10;;;;;;;8.51;73.16;99130.41;232595;200;151229;-61
2024/03/13 23:19:45;;;;;;;30.60;19.80;;;;;;;8.43;73.48;99127.42;232626;203;136865;-62
2024/03/13 23:24:50;;;;;;;29.80;19.30;;;;;;;8.35;73.85;99136.70;232617;203;138469;-62
2024/03/13 23:29:54;;;;;;;34.00;21.30;;;;;;;8.39;74.22;99135.25;232627;203;151160;-62
2024/03/13 23:34:57;;;;;;;33.00;22.10;;;;;;;8.42;74.51;99134.01;231960;200;137433;-62
2024/03/13 23:40:03;;;;;;;34.40;21.60;;;;;;;8.46;74.64;99130.10;232666;203;139473;-63
2024/03/13 23:45:06;;;;;;;34.30;21.60;;;;;;;8.48;74.65;99128.23;232625;203;151295;-67
2024/03/13 23:50:10;;;;;;;35.30;21.90;;;;;;;8.43;74.73;99129.89;232568;203;137666;-63